createdAt,value
2019-06-10T00:02:07.300Z,21.85
2019-06-10T00:04:41.501Z,21.84
2019-06-10T00:07:14.145Z,21.80
2019-06-10T00:09:47.233Z,21.79
2019-06-10T00:12:21.004Z,21.84
2019-06-10T00:14:53.521Z,21.85
2019-06-10T00:17:27.202Z,21.78
2019-06-10T00:20:01.947Z,21.73
2019-06-10T00:22:33.747Z,21.76
2019-06-10T00:25:08.544Z,21.74
2019-06-10T00:27:42.082Z,21.72
2019-06-10T00:30:17.167Z,21.70
2019-06-10T00:32:51.485Z,21.57
2019-06-10T00:35:23.630Z,21.59
2019-06-10T00:37:56.214Z,21.57
2019-06-10T00:40:28.564Z,21.55
2019-06-10T00:43:02.621Z,21.50
2019-06-10T00:45:34.990Z,21.47
2019-06-10T00:48:20.214Z,21.48
2019-06-10T00:50:42.638Z,21.52
2019-06-10T00:53:15.622Z,21.50
2019-06-10T00:55:47.883Z,21.38
2019-06-10T00:58:22.488Z,21.41
2019-06-10T01:00:55.029Z,21.37
2019-06-10T01:03:27.982Z,21.38
2019-06-10T01:06:02.586Z,21.37
2019-06-10T01:08:34.382Z,21.32
2019-06-10T01:11:12.585Z,21.34
2019-06-10T01:13:41.428Z,21.26
2019-06-10T01:16:15.538Z,21.32
2019-06-10T01:18:53.596Z,21.23
2019-06-10T01:21:27.170Z,21.22
2019-06-10T01:24:01.214Z,21.18
2019-06-10T01:26:45.391Z,21.04
2019-06-10T01:29:21.037Z,21.04
2019-06-10T01:31:55.698Z,21.02
2019-06-10T01:34:28.051Z,20.99
2019-06-10T01:37:01.476Z,20.95
2019-06-10T01:39:34.153Z,20.98
2019-06-10T01:42:06.509Z,21.01
2019-06-10T01:44:41.240Z,21.04
2019-06-10T01:47:14.640Z,20.98
2019-06-10T01:49:47.502Z,20.97
2019-06-10T01:52:21.170Z,20.93
2019-06-10T01:54:53.883Z,20.85
2019-06-10T01:57:26.427Z,20.93
2019-06-10T02:00:01.023Z,20.94
2019-06-10T02:02:35.212Z,20.85
2019-06-10T02:05:12.606Z,20.80
2019-06-10T02:07:43.643Z,20.80
2019-06-10T02:10:18.604Z,20.87
2019-06-10T02:12:50.894Z,20.82
2019-06-10T02:15:24.354Z,20.84
2019-06-10T02:17:56.636Z,21.19
2019-06-10T02:20:31.633Z,21.79
2019-06-10T02:23:03.424Z,22.60
2019-06-10T02:25:35.780Z,23.18
2019-06-10T02:28:08.171Z,23.32
2019-06-10T02:30:50.348Z,23.09
2019-06-10T02:33:19.004Z,22.41
2019-06-10T02:35:53.820Z,21.91
2019-06-10T02:38:34.064Z,21.60
2019-06-10T02:41:04.096Z,21.34
2019-06-10T02:43:37.937Z,21.27
2019-06-10T02:46:15.015Z,21.17
2019-06-10T02:48:44.961Z,21.18
2019-06-10T02:51:22.106Z,21.15
2019-06-10T02:53:54.020Z,21.11
2019-06-10T02:56:30.683Z,21.07
2019-06-10T02:59:03.193Z,21.17
2019-06-10T03:01:37.965Z,21.14
2019-06-10T03:04:08.597Z,21.18
2019-06-10T03:06:44.690Z,21.09
2019-06-10T03:09:16.616Z,21.12
2019-06-10T03:11:53.324Z,21.08
2019-06-10T03:14:25.396Z,21.08
2019-06-10T03:16:59.383Z,21.08
2019-06-10T03:19:46.892Z,21.09
2019-06-10T03:22:13.603Z,21.08
2019-06-10T03:24:46.054Z,21.10
2019-06-10T03:27:26.590Z,21.09
2019-06-10T03:30:16.955Z,21.08
2019-06-10T03:32:55.644Z,21.12
2019-06-10T03:35:28.529Z,21.08
2019-06-10T03:38:03.004Z,21.21
2019-06-10T03:40:39.630Z,21.24
2019-06-10T03:43:12.010Z,21.29
2019-06-10T03:45:45.091Z,21.42
2019-06-10T03:48:17.427Z,21.41
2019-06-10T03:50:49.700Z,21.37
2019-06-10T03:53:24.303Z,21.30
2019-06-10T03:55:56.393Z,21.30
2019-06-10T03:58:29.259Z,21.29
2019-06-10T04:01:03.283Z,21.39
2019-06-10T04:03:36.321Z,21.39
2019-06-10T04:06:09.235Z,21.44
2019-06-10T04:11:15.630Z,21.57
2019-06-10T04:13:47.894Z,21.67
2019-06-10T04:16:22.619Z,21.64
2019-06-10T04:18:56.071Z,21.75
2019-06-10T04:21:28.453Z,21.72
2019-06-10T04:24:02.233Z,21.87
2019-06-10T04:26:35.334Z,21.99
2019-06-10T04:29:08.893Z,22.03
2019-06-10T04:31:43.704Z,22.06
2019-06-10T04:34:16.544Z,22.06
2019-06-10T04:36:52.543Z,22.07
2019-06-10T04:39:27.658Z,22.11
2019-06-10T04:42:02.444Z,22.18
2019-06-10T04:44:34.503Z,22.28
2019-06-10T04:47:06.567Z,22.38
2019-06-10T04:49:38.921Z,22.38
2019-06-10T04:52:12.234Z,22.39
2019-06-10T04:54:44.962Z,22.35
2019-06-10T04:57:20.778Z,22.43
2019-06-10T04:59:55.566Z,22.36
2019-06-10T05:02:29.041Z,22.46
2019-06-10T05:05:02.937Z,22.48
2019-06-10T05:07:37.080Z,22.51
2019-06-10T05:10:12.271Z,22.51
2019-06-10T05:12:43.968Z,22.60
2019-06-10T05:15:16.276Z,22.62
2019-06-10T05:17:49.238Z,22.66
2019-06-10T05:20:28.329Z,22.69
2019-06-10T05:23:06.479Z,22.68
2019-06-10T05:25:38.725Z,22.68
2019-06-10T05:28:12.305Z,22.74
2019-06-10T05:30:44.711Z,22.74
2019-06-10T05:33:17.027Z,22.76
2019-06-10T05:35:49.358Z,22.81
2019-06-10T05:38:24.015Z,22.81
2019-06-10T05:40:59.921Z,22.83
2019-06-10T05:43:34.437Z,22.87
2019-06-10T05:46:06.923Z,22.90
2019-06-10T05:48:43.781Z,23.04
2019-06-10T05:51:16.207Z,23.11
2019-06-10T05:53:49.375Z,23.28
2019-06-10T05:56:23.361Z,23.45
2019-06-10T05:58:55.633Z,23.58
2019-06-10T06:01:28.038Z,23.67
2019-06-10T06:04:03.076Z,23.74
2019-06-10T06:06:35.458Z,23.90
2019-06-10T06:09:07.945Z,23.90
2019-06-10T06:11:43.202Z,23.91
2019-06-10T06:14:16.055Z,23.98
2019-06-10T06:16:48.269Z,24.06
2019-06-10T06:19:23.166Z,24.09
2019-06-10T06:21:55.477Z,24.22
2019-06-10T06:24:33.950Z,24.25
2019-06-10T06:27:09.631Z,24.31
2019-06-10T06:29:46.077Z,24.42
2019-06-10T06:32:23.572Z,24.60
2019-06-10T06:34:57.916Z,24.64
2019-06-10T06:37:42.765Z,24.72
2019-06-10T06:40:17.032Z,24.92
2019-06-10T06:42:49.270Z,24.99
2019-06-10T06:45:23.922Z,25.12
2019-06-10T06:47:57.153Z,25.19
2019-06-10T06:50:33.091Z,25.26
2019-06-10T06:53:29.971Z,25.36
2019-06-10T06:55:39.784Z,25.44
2019-06-10T06:58:16.317Z,25.52
2019-06-10T07:01:05.212Z,25.67
2019-06-10T07:03:29.666Z,25.75
2019-06-10T07:06:02.936Z,25.79
2019-06-10T07:08:37.762Z,25.87
2019-06-10T07:11:13.319Z,26.02
2019-06-10T07:13:46.182Z,26.16
2019-06-10T07:16:19.140Z,26.29
2019-06-10T07:18:54.016Z,26.40
2019-06-10T07:21:26.252Z,26.58
2019-06-10T07:23:58.628Z,26.79
2019-06-10T07:26:34.084Z,26.94
2019-06-10T07:29:05.230Z,27.11
2019-06-10T07:31:38.438Z,27.24
2019-06-10T07:34:12.974Z,27.46
2019-06-10T07:36:45.605Z,27.56
2019-06-10T07:39:18.030Z,27.59
2019-06-10T07:41:52.776Z,27.68
2019-06-10T07:44:24.296Z,27.79
2019-06-10T07:46:57.603Z,27.86
2019-06-10T07:49:32.143Z,27.93
2019-06-10T07:52:15.726Z,28.02
2019-06-10T07:54:39.263Z,28.06
2019-06-10T07:57:13.489Z,28.16
2019-06-10T07:59:46.161Z,28.28
2019-06-10T08:02:18.914Z,28.37
2019-06-10T08:04:54.261Z,28.45
2019-06-10T08:07:25.518Z,28.60
2019-06-10T08:09:58.922Z,28.71
2019-06-10T08:12:32.571Z,28.84
2019-06-10T08:15:07.129Z,28.88
2019-06-10T08:17:42.489Z,29.01
2019-06-10T08:20:16.339Z,29.14
2019-06-10T08:22:58.851Z,29.35
2019-06-10T08:25:33.338Z,29.46
2019-06-10T08:28:09.176Z,29.52
2019-06-10T08:30:46.099Z,29.52
2019-06-10T08:33:22.475Z,29.68
2019-06-10T08:35:59.899Z,29.78
2019-06-10T08:38:28.955Z,29.70
2019-06-10T08:41:03.302Z,29.85
2019-06-10T08:43:36.479Z,29.83
2019-06-10T08:46:08.957Z,29.95
2019-06-10T08:48:43.865Z,30.04
2019-06-10T08:51:17.748Z,30.19
2019-06-10T08:53:52.918Z,30.39
2019-06-10T08:56:24.775Z,30.39
2019-06-10T08:59:06.268Z,30.42
2019-06-10T09:01:48.352Z,30.24
2019-06-10T09:04:18.475Z,30.38
2019-06-10T09:06:53.816Z,30.42
2019-06-10T09:09:27.734Z,30.47
2019-06-10T09:12:00.124Z,30.66
2019-06-10T09:14:33.520Z,30.69
2019-06-10T09:17:05.915Z,30.68
2019-06-10T09:19:38.777Z,30.55
2019-06-10T09:22:12.626Z,30.68
2019-06-10T09:24:48.738Z,30.68
2019-06-10T09:27:19.070Z,30.83
2019-06-10T09:29:55.281Z,30.90
2019-06-10T09:32:26.023Z,30.67
2019-06-10T09:34:58.397Z,30.82
2019-06-10T09:37:32.577Z,31.00
2019-06-10T09:40:12.321Z,31.03
2019-06-10T09:42:49.721Z,31.13
2019-06-10T09:45:22.364Z,31.17
2019-06-10T09:47:59.814Z,31.23
2019-06-10T09:50:47.020Z,31.29
2019-06-10T09:53:32.102Z,31.40
2019-06-10T09:55:55.478Z,31.50
2019-06-10T09:58:27.093Z,31.46
2019-06-10T10:01:03.364Z,31.54
2019-06-10T10:03:36.168Z,31.58
2019-06-10T10:06:15.303Z,31.70
2019-06-10T10:08:51.475Z,31.81
2019-06-10T10:11:28.384Z,31.99
2019-06-10T10:13:59.703Z,32.07
2019-06-10T10:16:34.009Z,31.97
2019-06-10T10:19:13.149Z,31.98
2019-06-10T10:21:50.207Z,32.10
2019-06-10T10:24:23.025Z,32.13
2019-06-10T10:27:01.045Z,32.25
2019-06-10T10:29:32.847Z,32.42
2019-06-10T10:32:05.672Z,32.37
2019-06-10T10:34:38.071Z,32.35
2019-06-10T10:37:13.551Z,32.54
2019-06-10T10:39:46.703Z,32.45
2019-06-10T10:42:19.099Z,32.42
2019-06-10T10:44:58.618Z,32.51
2019-06-10T10:47:27.797Z,32.66
2019-06-10T10:50:02.855Z,32.53
2019-06-10T10:52:36.606Z,32.54
2019-06-10T10:55:13.073Z,32.51
2019-06-10T10:57:45.383Z,32.48
2019-06-10T11:00:22.615Z,32.65
2019-06-10T11:02:54.810Z,32.77
2019-06-10T11:05:33.382Z,32.82
2019-06-10T11:08:13.516Z,32.96
2019-06-10T11:10:49.561Z,33.11
2019-06-10T11:13:26.553Z,33.10
2019-06-10T11:16:00.288Z,33.26
2019-06-10T11:18:33.940Z,33.10
2019-06-10T11:21:06.652Z,32.75
2019-06-10T11:23:39.133Z,32.94
2019-06-10T11:26:14.082Z,33.17
2019-06-10T11:28:47.499Z,33.24
2019-06-10T11:31:23.909Z,33.13
2019-06-10T11:33:59.161Z,33.19
2019-06-10T11:36:38.602Z,33.06
2019-06-10T11:39:13.366Z,33.27
2019-06-10T11:41:48.175Z,33.11
2019-06-10T11:44:22.795Z,33.07
2019-06-10T11:47:03.254Z,32.81
2019-06-10T11:49:35.778Z,32.57
2019-06-10T11:52:08.415Z,32.72
2019-06-10T11:54:53.734Z,32.89
2019-06-10T11:57:18.387Z,33.23
2019-06-10T11:59:52.835Z,33.32
2019-06-10T12:02:25.307Z,33.23
2019-06-10T12:05:00.538Z,33.37
2019-06-10T12:07:33.169Z,33.54
2019-06-10T12:10:09.655Z,33.67
2019-06-10T12:12:43.413Z,33.69
2019-06-10T12:15:18.528Z,33.77
2019-06-10T12:17:58.642Z,33.50
2019-06-10T12:20:28.375Z,33.45
2019-06-10T12:23:02.135Z,33.08
2019-06-10T12:25:39.602Z,32.94
2019-06-10T12:28:09.395Z,33.01
2019-06-10T12:30:42.443Z,33.12
2019-06-10T12:33:21.416Z,33.25
2019-06-10T12:35:51.835Z,33.47
2019-06-10T12:38:24.120Z,33.50
2019-06-10T12:40:58.979Z,33.54
2019-06-10T12:43:32.699Z,33.58
2019-06-10T12:46:07.258Z,33.48
2019-06-10T12:48:42.926Z,33.42
2019-06-10T12:51:15.492Z,33.43
2019-06-10T12:53:49.153Z,33.45
2019-06-10T12:56:22.761Z,33.19
2019-06-10T12:58:58.086Z,33.36
2019-06-10T13:01:32.963Z,33.30
2019-06-10T13:04:07.472Z,33.36
2019-06-10T13:06:40.595Z,33.23
2019-06-10T13:09:13.353Z,32.95
2019-06-10T13:11:48.613Z,33.07
2019-06-10T13:14:22.409Z,33.14
2019-06-10T13:16:55.821Z,33.41
2019-06-10T13:19:29.484Z,33.33
2019-06-10T13:22:05.963Z,33.45
2019-06-10T13:24:37.673Z,33.31
2019-06-10T13:27:13.698Z,33.24
2019-06-10T13:29:48.677Z,33.14
2019-06-10T13:32:26.605Z,33.20
2019-06-10T13:34:58.834Z,32.82
2019-06-10T13:37:32.174Z,32.70
2019-06-10T13:40:08.587Z,32.62
2019-06-10T13:42:42.344Z,32.41
2019-06-10T13:45:15.841Z,32.13
2019-06-10T13:47:48.388Z,31.91
2019-06-10T13:50:24.994Z,31.86
2019-06-10T13:52:58.733Z,31.75
2019-06-10T13:55:32.818Z,31.84
2019-06-10T13:58:08.355Z,32.25
2019-06-10T14:00:46.183Z,32.59
2019-06-10T14:03:16.476Z,32.75
2019-06-10T14:05:49.020Z,32.92
2019-06-10T14:08:23.350Z,33.03
2019-06-10T14:10:55.947Z,33.20
2019-06-10T14:13:29.690Z,33.08
2019-06-10T14:16:03.681Z,32.83
2019-06-10T14:18:36.550Z,32.50
2019-06-10T14:21:12.866Z,32.20
2019-06-10T14:23:43.125Z,31.94
2019-06-10T14:26:17.128Z,31.80
2019-06-10T14:28:52.591Z,31.66
2019-06-10T14:31:43.862Z,31.54
2019-06-10T14:34:18.689Z,31.42
2019-06-10T14:36:52.519Z,31.33
2019-06-10T14:39:26.088Z,31.26
2019-06-10T14:41:59.403Z,31.21
2019-06-10T14:44:32.698Z,31.21
2019-06-10T14:47:08.798Z,31.27
2019-06-10T14:49:42.479Z,31.27
2019-06-10T14:52:16.829Z,31.19
2019-06-10T14:54:53.228Z,31.18
2019-06-10T14:57:34.038Z,31.14
2019-06-10T15:00:13.216Z,31.27
2019-06-10T15:02:44.282Z,31.23
2019-06-10T15:05:17.537Z,31.11
2019-06-10T15:07:53.402Z,31.11
2019-06-10T15:10:26.889Z,30.90
2019-06-10T15:12:59.545Z,30.78
2019-06-10T15:15:33.688Z,30.64
2019-06-10T15:18:07.529Z,30.64
2019-06-10T15:20:46.474Z,30.81
2019-06-10T15:23:25.531Z,30.93
2019-06-10T15:25:59.422Z,30.89
2019-06-10T15:28:31.910Z,30.85
2019-06-10T15:31:04.973Z,30.80
2019-06-10T15:33:37.163Z,30.84
2019-06-10T15:36:11.233Z,30.85
2019-06-10T15:38:45.570Z,30.78
2019-06-10T15:41:19.925Z,30.73
2019-06-10T15:43:53.034Z,30.75
2019-06-10T15:46:25.699Z,30.69
2019-06-10T15:48:57.930Z,30.67
2019-06-10T15:51:32.998Z,30.67
2019-06-10T15:54:08.650Z,30.63
2019-06-10T15:56:51.152Z,30.61
2019-06-10T15:59:18.007Z,30.60
2019-06-10T16:01:49.838Z,30.51
2019-06-10T16:04:28.817Z,30.57
2019-06-10T16:07:02.901Z,30.57
2019-06-10T16:09:36.129Z,30.54
2019-06-10T16:12:14.728Z,30.49
2019-06-10T16:14:46.457Z,30.37
2019-06-10T16:17:21.109Z,30.35
2019-06-10T16:19:53.582Z,30.39
2019-06-10T16:22:27.821Z,30.38
2019-06-10T16:25:05.978Z,30.32
2019-06-10T16:27:47.193Z,30.32
2019-06-10T16:30:14.661Z,30.30
2019-06-10T16:32:48.484Z,30.31
2019-06-10T16:35:23.881Z,30.16
2019-06-10T16:37:59.034Z,30.11
2019-06-10T16:40:32.484Z,29.99
2019-06-10T16:43:04.767Z,29.86
2019-06-10T16:45:37.075Z,29.84
2019-06-10T16:48:12.847Z,29.87
2019-06-10T16:50:47.101Z,29.78
2019-06-10T16:53:19.920Z,29.69
2019-06-10T16:55:53.222Z,29.62
2019-06-10T16:58:28.173Z,29.56
2019-06-10T17:00:59.853Z,29.50
2019-06-10T17:03:33.875Z,29.42
2019-06-10T17:06:06.484Z,29.35
2019-06-10T17:08:39.013Z,29.29
2019-06-10T17:11:12.395Z,29.23
2019-06-10T17:13:45.958Z,29.17
2019-06-10T17:16:18.292Z,29.16
2019-06-10T17:18:55.312Z,29.10
2019-06-10T17:21:33.961Z,29.05
2019-06-10T17:24:04.182Z,29.10
2019-06-10T17:26:38.274Z,29.11
2019-06-10T17:29:10.761Z,29.20
2019-06-10T17:31:43.161Z,29.24
2019-06-10T17:34:15.719Z,29.18
2019-06-10T17:36:47.805Z,29.14
2019-06-10T17:39:21.282Z,29.02
2019-06-10T17:41:54.145Z,28.94
2019-06-10T17:44:29.194Z,28.81
2019-06-10T17:47:02.378Z,28.73
2019-06-10T17:49:35.016Z,28.66
2019-06-10T17:52:07.455Z,28.61
2019-06-10T17:54:44.501Z,28.53
2019-06-10T17:57:18.911Z,28.45
2019-06-10T17:59:53.887Z,28.38
2019-06-10T18:02:27.298Z,28.32
2019-06-10T18:05:00.344Z,28.26
2019-06-10T18:07:35.395Z,28.33
2019-06-10T18:10:07.462Z,28.46
2019-06-10T18:12:42.539Z,28.46
2019-06-10T18:15:15.576Z,28.49
2019-06-10T18:17:48.671Z,28.45
2019-06-10T18:20:24.539Z,28.48
2019-06-10T18:23:02.773Z,28.43
2019-06-10T18:25:36.768Z,28.38
2019-06-10T18:28:08.558Z,28.32
2019-06-10T18:30:43.277Z,28.21
2019-06-10T18:33:15.807Z,28.16
2019-06-10T18:35:49.570Z,28.10
2019-06-10T18:38:22.295Z,28.08
2019-06-10T18:40:54.703Z,28.03
2019-06-10T18:43:35.107Z,27.97
2019-06-10T18:46:07.484Z,28.02
2019-06-10T18:48:40.050Z,27.96
2019-06-10T18:51:16.263Z,27.92
2019-06-10T18:53:50.248Z,27.80
2019-06-10T18:56:27.648Z,27.76
2019-06-10T18:59:16.176Z,27.65
2019-06-10T19:01:39.526Z,27.52
2019-06-10T19:04:14.601Z,27.48
2019-06-10T19:06:47.801Z,27.45
2019-06-10T19:09:20.643Z,27.45
2019-06-10T19:11:54.780Z,27.37
2019-06-10T19:14:27.398Z,27.33
2019-06-10T19:17:02.995Z,27.28
2019-06-10T19:19:36.135Z,27.23
2019-06-10T19:22:09.872Z,27.25
2019-06-10T19:24:44.749Z,27.17
2019-06-10T19:27:17.233Z,27.06
2019-06-10T19:29:51.341Z,26.92
2019-06-10T19:32:26.452Z,26.94
2019-06-10T19:35:03.167Z,26.92
2019-06-10T19:37:37.127Z,26.92
2019-06-10T19:40:12.240Z,26.85
2019-06-10T19:42:44.784Z,26.86
2019-06-10T19:45:18.509Z,26.85
2019-06-10T19:47:52.255Z,26.81
2019-06-10T19:50:24.767Z,26.77
2019-06-10T19:52:58.579Z,26.75
2019-06-10T19:55:33.717Z,26.71
2019-06-10T19:58:10.464Z,26.78
2019-06-10T20:00:50.245Z,26.72
2019-06-10T20:03:17.248Z,26.59
2019-06-10T20:05:52.809Z,26.55
2019-06-10T20:08:26.797Z,26.54
2019-06-10T20:11:03.271Z,26.44
2019-06-10T20:13:34.877Z,26.46
2019-06-10T20:16:12.024Z,26.47
2019-06-10T20:18:47.587Z,26.41
2019-06-10T20:21:18.973Z,26.19
2019-06-10T20:23:53.067Z,26.12
2019-06-10T20:26:27.877Z,26.11
2019-06-10T20:29:03.614Z,26.05
2019-06-10T20:31:35.805Z,25.98
2019-06-10T20:34:08.553Z,26.05
2019-06-10T20:36:43.479Z,25.84
2019-06-10T20:39:15.514Z,25.90
2019-06-10T20:41:51.945Z,25.86
2019-06-10T20:44:23.046Z,25.89
2019-06-10T20:46:56.094Z,25.81
2019-06-10T20:49:33.367Z,25.76
2019-06-10T20:52:11.514Z,25.59
2019-06-10T20:54:43.378Z,25.61
2019-06-10T20:57:16.753Z,25.63
2019-06-10T20:59:49.860Z,25.56
2019-06-10T21:02:22.717Z,25.48
2019-06-10T21:04:56.234Z,25.39
2019-06-10T21:07:28.869Z,25.40
2019-06-10T21:10:03.162Z,25.30
2019-06-10T21:12:36.577Z,25.35
2019-06-10T21:15:08.992Z,25.33
2019-06-10T21:17:43.337Z,25.25
2019-06-10T21:20:15.951Z,25.27
2019-06-10T21:22:49.018Z,25.24
2019-06-10T21:25:24.455Z,25.19
2019-06-10T21:28:02.749Z,25.26
2019-06-10T21:30:40.834Z,25.21
2019-06-10T21:33:08.216Z,25.18
2019-06-10T21:35:44.109Z,25.15
2019-06-10T21:38:16.215Z,25.04
2019-06-10T21:40:49.771Z,24.91
2019-06-10T21:43:22.511Z,24.87
2019-06-10T21:45:57.653Z,24.84
2019-06-10T21:48:37.740Z,24.78
2019-06-10T21:51:13.368Z,24.79
2019-06-10T21:53:46.950Z,24.79
2019-06-10T21:56:19.344Z,24.76
2019-06-10T21:58:54.135Z,24.63
2019-06-10T22:01:27.509Z,24.49
2019-06-10T22:04:04.249Z,24.58
2019-06-10T22:06:35.558Z,24.67
2019-06-10T22:09:08.316Z,24.66
2019-06-10T22:11:42.271Z,24.60
2019-06-10T22:14:17.401Z,24.60
2019-06-10T22:16:50.930Z,24.55
2019-06-10T22:19:23.881Z,24.59
2019-06-10T22:21:56.858Z,24.47
2019-06-10T22:24:31.013Z,24.43
2019-06-10T22:27:04.044Z,24.45
2019-06-10T22:29:36.419Z,24.35
2019-06-10T22:32:12.840Z,24.27
2019-06-10T22:34:46.056Z,24.24
2019-06-10T22:37:18.747Z,24.20
2019-06-10T22:39:52.618Z,24.23
2019-06-10T22:42:26.695Z,24.27
2019-06-10T22:45:03.584Z,24.22
2019-06-10T22:47:34.631Z,24.14
2019-06-10T22:50:08.104Z,23.97
2019-06-10T22:52:42.578Z,24.00
2019-06-10T22:55:15.070Z,24.00
2019-06-10T22:57:48.679Z,23.98
2019-06-10T23:00:24.993Z,24.00
2019-06-10T23:03:19.024Z,23.97
2019-06-10T23:05:52.353Z,23.89
2019-06-10T23:08:25.315Z,23.90
2019-06-10T23:10:58.571Z,23.86
2019-06-10T23:13:33.096Z,23.76
2019-06-10T23:16:05.380Z,23.65
2019-06-10T23:18:37.888Z,23.63
2019-06-10T23:21:13.291Z,23.56
2019-06-10T23:23:44.467Z,23.52
2019-06-10T23:26:16.816Z,23.54
2019-06-10T23:28:49.804Z,23.52
2019-06-10T23:31:25.633Z,23.57
2019-06-10T23:33:58.431Z,23.55
2019-06-10T23:36:32.832Z,23.39
2019-06-10T23:39:07.491Z,23.43
2019-06-10T23:41:39.891Z,23.38
2019-06-10T23:44:12.258Z,23.32
2019-06-10T23:46:44.700Z,23.34
2019-06-10T23:49:18.915Z,23.31
2019-06-10T23:51:54.072Z,23.28
2019-06-10T23:54:25.889Z,23.27
2019-06-10T23:56:58.863Z,23.19
2019-06-10T23:59:33.219Z,23.24
